createdAt,value
2022-08-07T00:01:44.015Z,12.20
2022-08-07T00:04:04.814Z,12.20
2022-08-07T00:06:33.865Z,12.00
2022-08-07T00:09:17.090Z,12.10
2022-08-07T00:11:55.600Z,12.00
2022-08-07T00:14:25.367Z,12.00
2022-08-07T00:17:01.902Z,12.10
2022-08-07T00:20:00.188Z,12.00
2022-08-07T00:22:34.487Z,12.00
2022-08-07T00:25:07.501Z,11.90
2022-08-07T00:27:52.457Z,11.90
2022-08-07T00:30:26.718Z,11.80
2022-08-07T00:32:58.760Z,11.80
2022-08-07T00:35:27.078Z,11.70
2022-08-07T00:37:57.661Z,11.70
2022-08-07T00:40:36.414Z,11.70
2022-08-07T00:44:01.959Z,11.70
2022-08-07T00:46:01.768Z,11.60
2022-08-07T00:48:32.218Z,11.50
2022-08-07T00:51:00.525Z,11.40
2022-08-07T00:53:39.036Z,11.40
2022-08-07T00:56:15.784Z,11.40
2022-08-07T00:58:47.048Z,11.30
2022-08-07T01:01:15.982Z,11.30
2022-08-07T01:03:57.235Z,11.20
2022-08-07T01:06:28.845Z,11.20
2022-08-07T01:08:58.299Z,11.20
2022-08-07T01:12:09.490Z,11.20
2022-08-07T01:14:15.532Z,11.10
2022-08-07T01:16:47.179Z,11.10
2022-08-07T01:19:18.992Z,11.10
2022-08-07T01:21:53.163Z,11.10
2022-08-07T01:24:24.800Z,11.10
2022-08-07T01:26:53.890Z,11.00
2022-08-07T01:29:27.634Z,11.00
2022-08-07T01:31:55.788Z,10.90
2022-08-07T01:34:31.149Z,10.80
2022-08-07T01:37:01.524Z,10.90
2022-08-07T01:39:31.595Z,10.90
2022-08-07T01:42:39.320Z,10.80
2022-08-07T01:45:01.052Z,10.70
2022-08-07T01:48:20.923Z,10.50
2022-08-07T01:50:16.421Z,10.50
2022-08-07T01:52:54.376Z,10.40
2022-08-07T01:55:28.430Z,10.20
2022-08-07T01:58:05.774Z,10.10
2022-08-07T02:00:50.108Z,10.20
2022-08-07T02:03:31.995Z,10.20
2022-08-07T02:06:31.305Z,10.10
2022-08-07T02:09:51.945Z,10.10
2022-08-07T02:12:18.345Z,10.10
2022-08-07T02:14:57.250Z,10.20
2022-08-07T02:17:35.157Z,10.20
2022-08-07T02:20:09.831Z,10.20
2022-08-07T02:22:46.335Z,10.10
2022-08-07T02:25:18.253Z,9.90
2022-08-07T02:27:56.751Z,9.90
2022-08-07T02:30:25.540Z,10.00
2022-08-07T02:33:00.761Z,10.00
2022-08-07T02:36:29.914Z,10.00
2022-08-07T02:38:32.272Z,10.10
2022-08-07T02:41:03.843Z,10.10
2022-08-07T02:43:35.180Z,10.00
2022-08-07T02:46:07.127Z,10.00
2022-08-07T02:48:35.724Z,10.00
2022-08-07T02:51:28.844Z,10.00
2022-08-07T02:54:01.841Z,10.00
2022-08-07T02:56:33.192Z,9.90
2022-08-07T02:59:03.917Z,9.80
2022-08-07T03:01:35.751Z,9.80
2022-08-07T03:04:13.833Z,9.60
2022-08-07T03:06:44.748Z,9.50
2022-08-07T03:09:14.539Z,9.60
2022-08-07T03:12:03.721Z,9.50
2022-08-07T03:14:36.124Z,9.40
2022-08-07T03:17:05.008Z,9.40
2022-08-07T03:19:36.957Z,9.40
2022-08-07T03:22:06.897Z,9.40
2022-08-07T03:24:34.834Z,9.40
2022-08-07T03:27:06.147Z,9.40
2022-08-07T03:29:51.429Z,9.40
2022-08-07T03:32:29.618Z,9.50
2022-08-07T03:35:17.836Z,9.40
2022-08-07T03:37:54.987Z,9.30
2022-08-07T03:40:36.685Z,9.30
2022-08-07T03:43:09.983Z,9.30
2022-08-07T03:45:47.492Z,9.20
2022-08-07T03:48:16.623Z,9.10
2022-08-07T03:50:56.040Z,9.10
2022-08-07T03:54:05.694Z,9.20
2022-08-07T03:56:32.602Z,9.10
2022-08-07T03:59:09.551Z,9.20
2022-08-07T04:01:46.632Z,9.20
2022-08-07T04:04:18.330Z,9.20
2022-08-07T04:06:50.905Z,9.20
2022-08-07T04:09:23.451Z,9.20
2022-08-07T04:12:28.182Z,9.20
2022-08-07T04:14:45.961Z,9.20
2022-08-07T04:17:21.235Z,9.20
2022-08-07T04:19:54.846Z,9.30
2022-08-07T04:22:28.887Z,9.30
2022-08-07T04:25:01.658Z,9.30
2022-08-07T04:27:35.488Z,9.30
2022-08-07T04:30:13.392Z,9.30
2022-08-07T04:33:00.015Z,9.40
2022-08-07T04:35:35.052Z,9.40
2022-08-07T04:38:09.080Z,9.40
2022-08-07T04:40:51.442Z,9.40
2022-08-07T04:44:09.811Z,9.30
2022-08-07T04:46:59.293Z,9.30
2022-08-07T04:49:47.431Z,9.30
2022-08-07T04:53:03.055Z,9.30
2022-08-07T04:58:11.092Z,9.40
2022-08-07T04:59:09.073Z,9.40
2022-08-07T05:01:31.816Z,9.40
2022-08-07T05:04:08.297Z,9.50
2022-08-07T05:07:20.437Z,9.50
2022-08-07T05:10:11.110Z,9.60
2022-08-07T05:12:53.001Z,9.60
2022-08-07T05:15:32.152Z,9.70
2022-08-07T05:18:08.706Z,9.60
2022-08-07T05:20:46.590Z,9.60
2022-08-07T05:23:23.206Z,9.70
2022-08-07T05:26:11.773Z,9.80
2022-08-07T05:28:48.562Z,9.90
2022-08-07T05:31:34.527Z,10.00
2022-08-07T05:37:11.170Z,10.20
2022-08-07T05:40:14.054Z,10.40
2022-08-07T05:42:34.877Z,10.60
2022-08-07T05:45:25.940Z,10.70
2022-08-07T05:48:02.511Z,10.90
2022-08-07T05:50:39.492Z,11.00
2022-08-07T05:54:12.183Z,11.20
2022-08-07T05:56:03.681Z,11.30
2022-08-07T05:58:39.194Z,11.40
2022-08-07T06:01:11.783Z,11.60
2022-08-07T06:03:56.572Z,11.60
2022-08-07T06:06:29.496Z,11.70
2022-08-07T06:08:57.556Z,11.80
2022-08-07T06:11:25.804Z,11.90
2022-08-07T06:14:12.924Z,12.00
2022-08-07T06:16:50.198Z,12.10
2022-08-07T06:19:49.927Z,12.20
2022-08-07T06:22:22.677Z,12.30
2022-08-07T06:25:01.198Z,12.50
2022-08-07T06:27:59.852Z,12.60
2022-08-07T06:30:24.270Z,12.80
2022-08-07T06:33:03.822Z,12.90
2022-08-07T06:35:45.518Z,13.00
2022-08-07T06:38:20.115Z,13.20
2022-08-07T06:40:53.194Z,13.30
2022-08-07T06:43:24.518Z,13.30
2022-08-07T06:46:04.655Z,13.40
2022-08-07T06:48:34.732Z,13.60
2022-08-07T06:51:08.276Z,13.70
2022-08-07T06:54:11.631Z,13.80
2022-08-07T06:56:48.870Z,13.90
2022-08-07T07:00:11.648Z,14.10
2022-08-07T07:02:54.444Z,14.30
2022-08-07T07:05:14.918Z,14.40
2022-08-07T07:08:07.409Z,14.60
2022-08-07T07:10:39.493Z,14.80
2022-08-07T07:13:16.234Z,15.00
2022-08-07T07:16:07.912Z,15.10
2022-08-07T07:18:52.493Z,15.20
2022-08-07T07:21:27.021Z,15.30
2022-08-07T07:24:12.500Z,15.40
2022-08-07T07:26:49.567Z,15.60
2022-08-07T07:29:40.024Z,15.70
2022-08-07T07:32:14.357Z,15.80
2022-08-07T07:34:46.666Z,16.00
2022-08-07T07:37:44.300Z,16.10
2022-08-07T07:40:10.137Z,16.20
2022-08-07T07:42:43.745Z,16.30
2022-08-07T07:45:22.825Z,16.40
2022-08-07T07:48:12.363Z,16.50
2022-08-07T07:51:00.854Z,16.70
2022-08-07T07:53:31.560Z,16.80
2022-08-07T07:56:03.207Z,16.80
2022-08-07T07:58:36.878Z,17.00
2022-08-07T08:02:02.709Z,17.10
2022-08-07T08:04:10.873Z,17.20
2022-08-07T08:06:51.008Z,17.50
2022-08-07T08:09:23.275Z,17.60
2022-08-07T08:12:02.374Z,17.60
2022-08-07T08:14:36.632Z,17.60
2022-08-07T08:17:56.181Z,17.70
2022-08-07T08:20:18.825Z,17.80
2022-08-07T08:23:09.754Z,17.80
2022-08-07T08:25:58.061Z,17.80
2022-08-07T08:28:37.813Z,17.90
2022-08-07T08:31:14.804Z,18.00
2022-08-07T08:33:55.811Z,18.30
2022-08-07T08:36:29.630Z,18.50
2022-08-07T08:39:01.606Z,18.60
2022-08-07T08:41:57.573Z,18.70
2022-08-07T08:44:46.136Z,18.80
2022-08-07T08:47:52.612Z,18.90
2022-08-07T08:50:34.929Z,19.10
2022-08-07T08:53:14.779Z,19.20
2022-08-07T08:56:16.658Z,19.30
2022-08-07T08:59:12.728Z,19.40
2022-08-07T09:01:49.162Z,19.50
2022-08-07T09:04:28.763Z,19.60
2022-08-07T09:07:11.148Z,19.60
2022-08-07T09:09:57.115Z,19.70
2022-08-07T09:12:42.849Z,19.80
2022-08-07T09:16:22.307Z,20.00
2022-08-07T09:18:41.552Z,20.00
2022-08-07T09:22:09.605Z,20.20
2022-08-07T09:25:00.260Z,20.20
2022-08-07T09:27:59.911Z,20.30
2022-08-07T09:31:02.929Z,20.60
2022-08-07T09:33:57.621Z,20.70
2022-08-07T09:36:37.053Z,20.80
2022-08-07T09:39:18.028Z,20.80
2022-08-07T09:42:22.888Z,20.80
2022-08-07T09:46:29.062Z,21.00
2022-08-07T09:48:25.130Z,21.10
2022-08-07T09:52:10.265Z,21.30
2022-08-07T09:54:08.216Z,21.50
2022-08-07T09:57:21.559Z,21.70
2022-08-07T10:00:14.401Z,21.80
2022-08-07T10:03:07.844Z,21.70
2022-08-07T10:06:11.835Z,21.60
2022-08-07T10:08:49.627Z,21.80
2022-08-07T10:12:01.963Z,21.80
2022-08-07T10:14:36.590Z,21.80
2022-08-07T10:18:00.385Z,21.80
2022-08-07T10:20:39.952Z,21.90
2022-08-07T10:24:05.410Z,21.80
2022-08-07T10:26:36.956Z,21.90
2022-08-07T10:29:32.226Z,22.00
2022-08-07T10:32:53.069Z,22.20
2022-08-07T10:35:27.172Z,22.30
2022-08-07T10:38:52.958Z,22.40
2022-08-07T10:41:46.242Z,22.20
2022-08-07T10:44:45.851Z,22.20
2022-08-07T10:47:31.120Z,22.30
2022-08-07T10:50:12.493Z,22.60
2022-08-07T10:53:07.953Z,22.70
2022-08-07T10:56:09.598Z,23.00
2022-08-07T10:59:13.589Z,22.90
2022-08-07T11:02:04.715Z,22.90
2022-08-07T11:04:54.121Z,22.90
2022-08-07T11:07:58.365Z,23.00
2022-08-07T11:10:39.579Z,23.20
2022-08-07T11:14:44.158Z,23.30
2022-08-07T11:16:38.885Z,23.60
2022-08-07T11:19:13.943Z,23.90
2022-08-07T11:22:05.168Z,24.10
2022-08-07T11:24:45.500Z,24.30
2022-08-07T11:28:01.858Z,24.50
2022-08-07T11:30:39.109Z,24.70
2022-08-07T11:33:53.977Z,24.80
2022-08-07T11:36:47.778Z,24.70
2022-08-07T11:39:19.470Z,24.50
2022-08-07T11:42:18.632Z,24.30
2022-08-07T11:45:13.035Z,24.10
2022-08-07T11:48:29.427Z,24.00
2022-08-07T11:51:09.730Z,24.00
2022-08-07T11:54:00.618Z,24.10
2022-08-07T11:56:34.905Z,24.10
2022-08-07T12:00:12.089Z,24.30
2022-08-07T12:02:52.625Z,24.60
2022-08-07T12:05:49.709Z,25.00
2022-08-07T12:08:34.604Z,25.30
2022-08-07T12:11:22.267Z,25.40
2022-08-07T12:14:24.603Z,25.70
2022-08-07T12:17:07.576Z,25.90
2022-08-07T12:20:12.882Z,25.40
2022-08-07T12:23:09.153Z,25.20
2022-08-07T12:26:03.106Z,25.30
2022-08-07T12:29:05.761Z,25.30
2022-08-07T12:32:04.950Z,25.40
2022-08-07T12:34:35.960Z,25.60
2022-08-07T12:37:08.060Z,25.60
2022-08-07T12:39:43.917Z,25.50
2022-08-07T12:42:27.960Z,25.60
2022-08-07T12:44:58.869Z,25.90
2022-08-07T12:47:49.345Z,26.30
2022-08-07T12:50:48.908Z,26.50
2022-08-07T12:54:02.653Z,26.50
2022-08-07T12:56:39.557Z,26.50
2022-08-07T12:59:08.306Z,26.30
2022-08-07T13:02:09.759Z,26.30
2022-08-07T13:05:01.077Z,26.00
2022-08-07T13:08:11.914Z,26.40
2022-08-07T13:10:52.279Z,26.60
2022-08-07T13:13:48.501Z,26.50
2022-08-07T13:16:40.367Z,26.70
2022-08-07T13:19:45.978Z,27.20
2022-08-07T13:22:31.636Z,27.50
2022-08-07T13:25:09.178Z,27.30
2022-08-07T13:28:11.178Z,27.00
2022-08-07T13:30:49.085Z,26.70
2022-08-07T13:34:33.975Z,26.50
2022-08-07T13:36:45.288Z,26.30
2022-08-07T13:40:33.009Z,26.20
2022-08-07T13:42:30.218Z,26.50
2022-08-07T13:46:06.904Z,27.00
2022-08-07T13:48:06.221Z,26.90
2022-08-07T13:50:45.179Z,27.10
2022-08-07T13:54:00.756Z,27.00
2022-08-07T13:56:36.084Z,27.10
2022-08-07T13:59:20.766Z,27.00
2022-08-07T14:02:05.390Z,27.10
2022-08-07T14:04:47.506Z,27.20
2022-08-07T14:07:21.177Z,27.40
2022-08-07T14:10:12.608Z,27.50
2022-08-07T14:13:00.692Z,27.40
2022-08-07T14:15:42.599Z,27.10
2022-08-07T14:18:28.768Z,26.80
2022-08-07T14:22:00.529Z,26.20
2022-08-07T14:24:08.742Z,26.30
2022-08-07T14:26:51.289Z,26.50
2022-08-07T14:30:04.881Z,27.00
2022-08-07T14:32:20.603Z,26.70
2022-08-07T14:34:53.496Z,26.60
2022-08-07T14:37:39.097Z,26.80
2022-08-07T14:40:18.276Z,27.10
2022-08-07T14:43:57.179Z,27.40
2022-08-07T14:46:04.061Z,27.50
2022-08-07T14:48:34.023Z,27.20
2022-08-07T14:51:16.172Z,27.00
2022-08-07T14:54:05.764Z,27.10
2022-08-07T14:56:34.292Z,26.90
2022-08-07T15:02:33.001Z,27.50
2022-08-07T15:05:01.519Z,27.70
2022-08-07T15:07:51.371Z,27.60
2022-08-07T15:10:29.609Z,27.30
2022-08-07T15:13:00.777Z,27.50
2022-08-07T15:15:43.846Z,27.70
2022-08-07T15:18:35.638Z,28.00
2022-08-07T15:21:45.152Z,28.40
2022-08-07T15:25:13.346Z,28.00
2022-08-07T15:27:11.362Z,27.70
2022-08-07T15:30:08.585Z,28.10
2022-08-07T15:36:01.987Z,27.80
2022-08-07T15:38:30.319Z,27.80
2022-08-07T15:41:22.995Z,27.90
2022-08-07T15:43:59.468Z,28.00
2022-08-07T15:46:32.348Z,28.30
2022-08-07T15:49:13.311Z,28.40
2022-08-07T15:54:39.712Z,28.00
2022-08-07T15:57:28.149Z,27.90
2022-08-07T16:00:04.418Z,27.90
2022-08-07T16:02:46.824Z,27.90
2022-08-07T16:05:18.597Z,27.50
2022-08-07T16:08:30.621Z,27.40
2022-08-07T16:11:02.571Z,27.00
2022-08-07T16:13:59.969Z,26.80
2022-08-07T16:16:57.008Z,26.70
2022-08-07T16:20:05.663Z,26.60
2022-08-07T16:22:55.105Z,26.90
2022-08-07T16:26:31.435Z,27.00
2022-08-07T16:30:07.581Z,26.90
2022-08-07T16:32:33.105Z,26.80
2022-08-07T16:35:51.751Z,26.90
2022-08-07T16:38:57.273Z,26.80
2022-08-07T16:41:52.059Z,26.70
2022-08-07T16:45:15.388Z,26.80
2022-08-07T16:48:28.566Z,26.70
2022-08-07T16:51:54.237Z,26.70
2022-08-07T16:54:32.650Z,26.60
2022-08-07T16:57:15.508Z,26.40
2022-08-07T17:00:30.067Z,26.40
2022-08-07T17:03:57.700Z,26.30
2022-08-07T17:06:29.875Z,26.30
2022-08-07T17:10:06.097Z,26.10
2022-08-07T17:12:44.456Z,26.20
2022-08-07T17:15:15.663Z,26.20
2022-08-07T17:17:49.064Z,26.30
2022-08-07T17:20:32.759Z,26.40
2022-08-07T17:23:15.964Z,26.50
2022-08-07T17:26:22.641Z,26.60
2022-08-07T17:29:07.546Z,26.40
2022-08-07T17:31:44.454Z,26.50
2022-08-07T17:35:32.805Z,26.50
2022-08-07T17:38:11.489Z,26.50
2022-08-07T17:40:50.664Z,26.40
2022-08-07T17:44:01.571Z,26.40
2022-08-07T17:46:34.768Z,26.50
2022-08-07T17:49:30.918Z,26.60
2022-08-07T17:52:18.860Z,26.50
2022-08-07T17:54:55.496Z,26.60
2022-08-07T17:57:25.348Z,26.70
2022-08-07T18:00:32.748Z,26.80
2022-08-07T18:03:28.676Z,26.70
2022-08-07T18:06:16.622Z,26.50
2022-08-07T18:09:01.857Z,26.50
2022-08-07T18:12:11.909Z,26.50
2022-08-07T18:15:00.965Z,26.50
2022-08-07T18:18:36.934Z,26.60
2022-08-07T18:21:06.883Z,26.50
2022-08-07T18:23:43.017Z,26.40
2022-08-07T18:26:16.417Z,26.20
2022-08-07T18:28:58.406Z,26.20
2022-08-07T18:32:03.997Z,26.10
2022-08-07T18:35:17.361Z,26.00
2022-08-07T18:38:58.252Z,25.80
2022-08-07T18:41:45.653Z,25.50
2022-08-07T18:45:39.893Z,25.00
2022-08-07T18:48:01.049Z,24.70
2022-08-07T18:50:47.121Z,24.70
2022-08-07T18:53:16.783Z,24.50
2022-08-07T18:56:06.188Z,24.30
2022-08-07T18:58:51.949Z,24.00
2022-08-07T19:02:17.502Z,23.80
2022-08-07T19:04:56.113Z,23.60
2022-08-07T19:07:51.786Z,23.30
2022-08-07T19:10:31.401Z,23.10
2022-08-07T19:13:35.527Z,22.90
2022-08-07T19:16:43.793Z,22.70
2022-08-07T19:19:04.734Z,22.50
2022-08-07T19:21:45.114Z,22.40
2022-08-07T19:24:44.456Z,22.20
2022-08-07T19:28:28.703Z,22.00
2022-08-07T19:31:06.374Z,21.80
2022-08-07T19:32:59.808Z,21.70
2022-08-07T19:35:33.396Z,21.60
2022-08-07T19:38:16.155Z,21.50
2022-08-07T19:40:50.571Z,21.40
2022-08-07T19:43:48.889Z,21.30
2022-08-07T19:46:26.462Z,21.10
2022-08-07T19:49:07.543Z,21.10
2022-08-07T19:51:50.781Z,21.00
2022-08-07T19:54:34.121Z,20.80
2022-08-07T19:58:03.352Z,20.70
2022-08-07T20:00:08.824Z,20.50
2022-08-07T20:02:51.863Z,20.40
2022-08-07T20:05:28.023Z,20.30
2022-08-07T20:08:00.034Z,19.90
2022-08-07T20:10:36.070Z,19.90
2022-08-07T20:13:26.998Z,19.80
2022-08-07T20:15:58.152Z,19.80
2022-08-07T20:18:32.226Z,19.80
2022-08-07T20:21:02.265Z,19.70
2022-08-07T20:23:43.361Z,19.70
2022-08-07T20:26:20.535Z,19.50
2022-08-07T20:29:10.455Z,19.40
2022-08-07T20:31:51.932Z,19.30
2022-08-07T20:34:48.697Z,19.30
2022-08-07T20:37:15.281Z,19.30
2022-08-07T20:40:03.669Z,19.10
2022-08-07T20:42:32.303Z,19.10
2022-08-07T20:45:01.222Z,19.00
2022-08-07T20:47:55.655Z,18.90
2022-08-07T20:50:21.404Z,18.70
2022-08-07T20:52:51.062Z,18.60
2022-08-07T20:55:24.504Z,18.60
2022-08-07T20:58:03.575Z,18.40
2022-08-07T21:00:44.341Z,18.40
2022-08-07T21:03:16.508Z,18.40
2022-08-07T21:05:56.102Z,18.30
2022-08-07T21:09:00.824Z,18.40
2022-08-07T21:11:46.256Z,18.40
2022-08-07T21:14:31.827Z,18.30
2022-08-07T21:18:02.918Z,18.20
2022-08-07T21:20:05.161Z,18.10
2022-08-07T21:22:54.476Z,18.00
2022-08-07T21:25:42.604Z,17.90
2022-08-07T21:28:48.342Z,17.80
2022-08-07T21:31:31.418Z,17.80
2022-08-07T21:34:26.772Z,17.70
2022-08-07T21:37:22.683Z,17.50
2022-08-07T21:40:13.767Z,17.50
2022-08-07T21:42:54.538Z,17.40
2022-08-07T21:46:07.694Z,17.40
2022-08-07T21:48:34.571Z,17.30
2022-08-07T21:51:19.770Z,17.20
2022-08-07T21:53:54.014Z,17.30
2022-08-07T21:56:59.780Z,17.30
2022-08-07T21:59:36.439Z,17.30
2022-08-07T22:02:29.922Z,17.20
2022-08-07T22:05:00.192Z,17.20
2022-08-07T22:07:42.774Z,17.10
2022-08-07T22:10:21.840Z,17.10
2022-08-07T22:12:55.603Z,17.00
2022-08-07T22:16:44.187Z,17.00
2022-08-07T22:18:49.660Z,16.90
2022-08-07T22:21:21.737Z,16.60
2022-08-07T22:24:02.881Z,16.60
2022-08-07T22:26:43.980Z,16.50
2022-08-07T22:29:37.743Z,16.40
2022-08-07T22:32:39.092Z,16.40
2022-08-07T22:35:11.512Z,16.40
2022-08-07T22:38:02.952Z,16.30
2022-08-07T22:41:03.767Z,16.30
2022-08-07T22:43:56.351Z,16.20
2022-08-07T22:47:08.693Z,16.10
2022-08-07T22:50:13.694Z,16.00
2022-08-07T22:54:06.926Z,15.90
2022-08-07T22:56:44.598Z,15.80
2022-08-07T22:59:42.452Z,15.90
2022-08-07T23:02:23.463Z,15.90
2022-08-07T23:06:07.306Z,15.90
2022-08-07T23:08:22.336Z,15.80
2022-08-07T23:11:18.765Z,15.90
2022-08-07T23:14:19.902Z,15.80
2022-08-07T23:17:41.524Z,15.70
2022-08-07T23:20:53.302Z,15.70
2022-08-07T23:24:06.625Z,15.70
2022-08-07T23:26:50.071Z,15.60
2022-08-07T23:30:38.008Z,15.60
2022-08-07T23:34:18.971Z,15.50
2022-08-07T23:35:58.429Z,15.40
2022-08-07T23:38:42.762Z,15.30
2022-08-07T23:42:04.140Z,15.30
2022-08-07T23:44:57.695Z,15.10
2022-08-07T23:48:03.036Z,15.00
2022-08-07T23:50:54.638Z,15.00
2022-08-07T23:53:51.597Z,14.90
2022-08-07T23:56:37.835Z,14.80
